createdAt,value
2019-04-30T00:00:18.212Z,37.40
2019-04-30T00:02:38.373Z,34.93
2019-04-30T00:04:45.276Z,36.73
2019-04-30T00:06:56.890Z,38.50
2019-04-30T00:09:15.118Z,38.37
2019-04-30T00:11:22.641Z,35.97
2019-04-30T00:13:35.762Z,39.07
2019-04-30T00:15:47.872Z,38.83
2019-04-30T00:18:01.836Z,36.77
2019-04-30T00:20:15.119Z,38.63
2019-04-30T00:22:33.494Z,35.73
2019-04-30T00:24:44.265Z,37.57
2019-04-30T00:26:52.858Z,37.17
2019-04-30T00:29:05.132Z,42.13
2019-04-30T00:31:17.621Z,32.83
2019-04-30T00:33:28.857Z,35.77
2019-04-30T00:35:39.808Z,40.80
2019-04-30T00:37:52.059Z,39.87
2019-04-30T00:40:05.596Z,37.10
2019-04-30T00:42:23.911Z,38.13
2019-04-30T00:44:30.120Z,37.93
2019-04-30T00:46:41.127Z,39.83
2019-04-30T00:48:52.044Z,41.37
2019-04-30T00:51:07.501Z,41.07
2019-04-30T00:53:16.654Z,41.13
2019-04-30T00:55:27.648Z,45.73
2019-04-30T00:57:43.630Z,39.13
2019-04-30T00:59:51.389Z,41.67
2019-04-30T01:02:13.195Z,37.87
2019-04-30T01:04:31.693Z,43.00
2019-04-30T01:06:42.658Z,42.87
2019-04-30T01:08:53.525Z,44.57
2019-04-30T01:11:09.357Z,38.03
2019-04-30T01:13:19.375Z,44.00
2019-04-30T01:15:30.314Z,43.10
2019-04-30T01:17:45.458Z,39.77
2019-04-30T01:19:54.581Z,46.43
2019-04-30T01:22:05.725Z,46.60
2019-04-30T01:24:16.680Z,39.90
2019-04-30T01:26:31.052Z,43.63
2019-04-30T01:28:40.796Z,38.83
2019-04-30T01:30:53.838Z,39.60
2019-04-30T01:33:05.012Z,43.93
2019-04-30T01:35:15.934Z,44.63
2019-04-30T01:37:29.646Z,43.27
2019-04-30T01:39:40.217Z,42.40
2019-04-30T01:41:51.182Z,45.17
2019-04-30T01:44:03.756Z,44.80
2019-04-30T01:46:15.016Z,39.23
2019-04-30T01:48:25.940Z,44.73
2019-04-30T01:50:38.675Z,46.33
2019-04-30T01:52:52.664Z,41.83
2019-04-30T01:55:04.179Z,40.83
2019-04-30T01:57:19.231Z,46.57
2019-04-30T01:59:31.897Z,44.40
2019-04-30T02:01:48.728Z,44.53
2019-04-30T02:03:59.694Z,44.70
2019-04-30T02:06:11.550Z,46.20
2019-04-30T02:08:22.741Z,46.00
2019-04-30T02:10:33.691Z,45.03
2019-04-30T02:12:44.639Z,45.47
2019-04-30T02:14:55.700Z,46.50
2019-04-30T02:17:06.676Z,44.90
2019-04-30T02:19:18.805Z,44.80
2019-04-30T02:21:30.914Z,44.03
2019-04-30T02:23:42.645Z,44.83
2019-04-30T02:25:58.828Z,43.23
2019-04-30T02:28:09.726Z,47.33
2019-04-30T02:30:21.117Z,47.93
2019-04-30T02:32:32.046Z,41.53
2019-04-30T02:34:49.775Z,44.10
2019-04-30T02:37:09.806Z,46.77
2019-04-30T02:39:20.890Z,46.70
2019-04-30T02:41:31.947Z,45.73
2019-04-30T02:43:43.832Z,47.73
2019-04-30T02:45:55.309Z,46.23
2019-04-30T02:48:06.505Z,46.20
2019-04-30T02:50:22.295Z,48.03
2019-04-30T02:52:32.427Z,48.93
2019-04-30T02:54:45.208Z,45.43
2019-04-30T02:56:59.684Z,43.43
2019-04-30T02:59:12.733Z,47.53
2019-04-30T03:01:23.563Z,47.03
2019-04-30T03:03:34.427Z,46.27
2019-04-30T03:05:45.256Z,44.93
2019-04-30T03:07:56.106Z,43.00
2019-04-30T03:10:09.802Z,43.33
2019-04-30T03:12:20.451Z,45.40
2019-04-30T03:14:33.367Z,40.13
2019-04-30T03:16:53.287Z,42.10
2019-04-30T03:19:24.199Z,40.20
2019-04-30T03:21:42.660Z,40.70
2019-04-30T03:23:53.577Z,40.73
2019-04-30T03:26:04.428Z,42.03
2019-04-30T03:28:19.933Z,40.50
2019-04-30T03:30:31.986Z,42.23
2019-04-30T03:32:43.825Z,40.83
2019-04-30T03:34:55.797Z,41.27
2019-04-30T03:37:06.648Z,41.43
2019-04-30T03:39:19.844Z,42.60
2019-04-30T03:41:33.469Z,42.90
2019-04-30T03:43:43.262Z,43.70
2019-04-30T03:45:54.524Z,41.47
2019-04-30T03:48:05.526Z,39.57
2019-04-30T03:50:19.605Z,40.37
2019-04-30T03:52:29.379Z,41.87
2019-04-30T03:54:40.987Z,41.20
2019-04-30T03:56:53.954Z,40.50
2019-04-30T03:59:04.798Z,41.53
2019-04-30T04:01:29.900Z,39.13
2019-04-30T04:04:00.338Z,38.97
2019-04-30T04:06:16.281Z,37.23
2019-04-30T04:08:29.455Z,39.73
2019-04-30T04:10:42.473Z,37.17
2019-04-30T04:12:55.311Z,41.47
2019-04-30T04:15:06.543Z,42.10
2019-04-30T04:17:20.097Z,39.43
2019-04-30T04:19:30.382Z,41.20
2019-04-30T04:21:41.289Z,39.60
2019-04-30T04:23:52.784Z,39.47
2019-04-30T04:26:03.741Z,40.27
2019-04-30T04:28:14.714Z,38.60
2019-04-30T04:30:25.751Z,43.77
2019-04-30T04:32:36.639Z,37.77
2019-04-30T04:34:50.054Z,42.53
2019-04-30T04:37:00.258Z,40.73
2019-04-30T04:39:11.214Z,36.73
2019-04-30T04:41:22.090Z,36.37
2019-04-30T04:43:33.096Z,41.50
2019-04-30T04:45:44.039Z,40.40
2019-04-30T04:47:55.086Z,39.57
2019-04-30T04:50:07.051Z,35.53
2019-04-30T04:52:20.622Z,43.47
2019-04-30T04:54:30.761Z,39.20
2019-04-30T04:56:41.710Z,40.53
2019-04-30T04:58:52.723Z,44.67
2019-04-30T05:01:03.670Z,37.93
2019-04-30T05:03:20.194Z,26.80
2019-04-30T05:05:31.276Z,34.03
2019-04-30T05:07:42.379Z,36.73
2019-04-30T05:09:53.290Z,35.10
2019-04-30T05:12:04.229Z,40.63
2019-04-30T05:14:15.092Z,37.27
2019-04-30T05:16:26.194Z,36.20
2019-04-30T05:18:38.978Z,39.13
2019-04-30T05:20:50.013Z,46.40
2019-04-30T05:23:00.934Z,40.03
2019-04-30T05:25:11.880Z,41.77
2019-04-30T05:27:22.725Z,35.17
2019-04-30T05:29:33.612Z,41.53
2019-04-30T05:31:44.462Z,40.97
2019-04-30T05:33:55.334Z,39.03
2019-04-30T05:36:06.265Z,47.03
2019-04-30T05:38:18.836Z,46.00
2019-04-30T05:40:29.900Z,45.23
2019-04-30T05:42:40.844Z,39.37
2019-04-30T05:44:51.738Z,41.33
2019-04-30T05:47:02.820Z,40.80
2019-04-30T05:49:13.686Z,39.43
2019-04-30T05:51:24.533Z,41.00
2019-04-30T05:53:35.427Z,43.47
2019-04-30T05:55:46.259Z,44.77
2019-04-30T05:57:58.784Z,43.03
2019-04-30T06:00:10.602Z,41.47
2019-04-30T06:02:21.669Z,40.80
2019-04-30T06:04:32.523Z,41.97
2019-04-30T06:06:43.383Z,38.30
2019-04-30T06:09:14.861Z,42.07
2019-04-30T06:11:39.924Z,41.37
2019-04-30T06:13:58.921Z,41.37
2019-04-30T06:16:11.881Z,44.00
2019-04-30T06:18:23.046Z,40.07
2019-04-30T06:20:35.835Z,43.90
2019-04-30T06:22:46.987Z,40.73
2019-04-30T06:24:59.460Z,39.63
2019-04-30T06:27:11.006Z,42.57
2019-04-30T06:29:22.378Z,41.90
2019-04-30T06:31:37.370Z,39.60
2019-04-30T06:33:46.599Z,45.13
2019-04-30T06:35:58.998Z,41.67
2019-04-30T06:38:10.086Z,43.23
2019-04-30T06:40:21.040Z,42.23
2019-04-30T06:42:33.811Z,42.67
2019-04-30T06:44:44.955Z,40.93
2019-04-30T06:46:55.945Z,44.03
2019-04-30T06:49:06.889Z,45.07
2019-04-30T06:51:18.886Z,38.27
2019-04-30T06:53:29.934Z,43.20
2019-04-30T06:55:41.026Z,37.37
2019-04-30T06:57:51.857Z,40.37
2019-04-30T07:00:06.525Z,38.53
2019-04-30T07:02:19.521Z,38.93
2019-04-30T07:04:30.259Z,36.10
2019-04-30T07:06:44.116Z,38.27
2019-04-30T07:09:13.801Z,37.23
2019-04-30T07:11:29.744Z,36.03
2019-04-30T07:13:41.400Z,37.43
2019-04-30T07:15:52.272Z,36.77
2019-04-30T07:18:03.337Z,37.07
2019-04-30T07:20:14.210Z,38.90
2019-04-30T07:22:37.714Z,39.43
2019-04-30T07:24:39.427Z,37.37
2019-04-30T07:26:54.754Z,43.17
2019-04-30T07:29:03.177Z,38.07
2019-04-30T07:31:14.905Z,40.43
2019-04-30T07:33:26.030Z,43.73
2019-04-30T07:35:36.982Z,45.33
2019-04-30T07:37:49.750Z,39.03
2019-04-30T07:40:00.798Z,41.20
2019-04-30T07:42:11.653Z,47.10
2019-04-30T07:44:35.470Z,39.57
2019-04-30T07:46:41.165Z,42.67
2019-04-30T07:48:50.096Z,44.40
2019-04-30T07:51:00.958Z,39.57
2019-04-30T07:53:12.714Z,41.17
2019-04-30T07:55:23.887Z,39.73
2019-04-30T07:57:34.721Z,41.67
2019-04-30T07:59:45.591Z,41.70
2019-04-30T08:02:04.053Z,41.67
2019-04-30T08:04:18.846Z,27.97
2019-04-30T08:06:31.000Z,37.70
2019-04-30T08:08:42.566Z,35.20
2019-04-30T08:10:53.529Z,39.50
2019-04-30T08:13:10.231Z,40.07
2019-04-30T08:15:17.146Z,35.90
2019-04-30T08:17:28.948Z,36.03
2019-04-30T08:19:41.209Z,36.83
2019-04-30T08:21:52.104Z,43.07
2019-04-30T08:24:03.076Z,42.77
2019-04-30T08:26:13.911Z,39.17
2019-04-30T08:28:24.816Z,40.70
2019-04-30T08:30:35.896Z,41.50
2019-04-30T08:32:46.759Z,40.57
2019-04-30T08:35:01.004Z,40.77
2019-04-30T08:37:17.087Z,40.43
2019-04-30T08:39:23.321Z,42.37
2019-04-30T08:41:34.174Z,39.30
2019-04-30T08:43:45.044Z,43.67
2019-04-30T08:45:55.894Z,41.97
2019-04-30T08:48:08.978Z,47.40
2019-04-30T08:50:20.650Z,44.67
2019-04-30T08:52:32.150Z,43.57
2019-04-30T08:54:45.031Z,42.23
2019-04-30T08:56:55.870Z,53.03
2019-04-30T08:59:10.873Z,43.67
2019-04-30T09:01:19.862Z,42.67
2019-04-30T09:03:30.787Z,44.93
2019-04-30T09:05:43.759Z,41.83
2019-04-30T09:07:54.630Z,45.53
2019-04-30T09:10:09.185Z,44.87
2019-04-30T09:12:20.237Z,43.30
2019-04-30T09:14:31.212Z,50.33
2019-04-30T09:16:42.120Z,43.83
2019-04-30T09:18:53.103Z,42.47
2019-04-30T09:21:06.371Z,41.63
2019-04-30T09:23:18.601Z,40.67
2019-04-30T09:25:29.482Z,46.20
2019-04-30T09:27:40.347Z,39.70
2019-04-30T09:29:51.323Z,41.73
2019-04-30T09:32:02.270Z,44.57
2019-04-30T09:34:17.095Z,35.83
2019-04-30T09:36:25.962Z,44.67
2019-04-30T09:38:38.817Z,38.80
2019-04-30T09:40:50.765Z,42.03
2019-04-30T09:43:01.934Z,40.73
2019-04-30T09:45:12.923Z,39.87
2019-04-30T09:47:23.773Z,40.93
2019-04-30T09:49:34.620Z,40.23
2019-04-30T09:51:45.511Z,33.80
2019-04-30T09:53:59.655Z,41.33
2019-04-30T09:56:09.652Z,40.43
2019-04-30T09:58:21.255Z,40.17
2019-04-30T10:00:32.520Z,45.57
2019-04-30T10:02:43.440Z,36.43
2019-04-30T10:04:54.706Z,33.23
2019-04-30T10:07:05.869Z,38.17
2019-04-30T10:09:19.332Z,40.90
2019-04-30T10:11:41.143Z,41.47
2019-04-30T10:13:52.211Z,37.77
2019-04-30T10:16:09.724Z,38.17
2019-04-30T10:18:20.623Z,35.90
2019-04-30T10:20:40.229Z,37.23
2019-04-30T10:22:51.076Z,34.53
2019-04-30T10:25:06.744Z,34.30
2019-04-30T10:27:19.093Z,33.53
2019-04-30T10:29:30.325Z,33.57
2019-04-30T10:31:41.302Z,34.93
2019-04-30T10:33:52.165Z,37.23
2019-04-30T10:36:03.186Z,33.97
2019-04-30T10:38:14.061Z,33.40
2019-04-30T10:40:25.047Z,32.73
2019-04-30T10:42:36.001Z,34.67
2019-04-30T10:44:47.128Z,34.73
2019-04-30T10:46:59.368Z,35.07
2019-04-30T10:49:10.650Z,32.27
2019-04-30T10:51:21.600Z,34.40
2019-04-30T10:53:32.468Z,31.47
2019-04-30T10:55:43.419Z,35.97
2019-04-30T10:57:54.276Z,32.83
2019-04-30T11:00:10.121Z,32.17
2019-04-30T11:02:21.227Z,32.07
2019-04-30T11:04:32.177Z,28.60
2019-04-30T11:06:43.135Z,28.43
2019-04-30T11:08:54.510Z,35.37
2019-04-30T11:11:05.563Z,22.27
2019-04-30T11:13:16.426Z,26.10
2019-04-30T11:15:29.209Z,23.10
2019-04-30T11:17:40.564Z,22.33
2019-04-30T11:19:51.777Z,26.03
2019-04-30T11:22:04.224Z,25.50
2019-04-30T11:24:15.629Z,27.33
2019-04-30T11:26:30.804Z,26.80
2019-04-30T11:28:39.816Z,26.77
2019-04-30T11:30:53.198Z,25.10
2019-04-30T11:33:04.497Z,27.40
2019-04-30T11:35:15.683Z,24.13
2019-04-30T11:37:26.664Z,24.47
2019-04-30T11:39:37.725Z,23.47
2019-04-30T11:41:48.822Z,22.03
2019-04-30T11:43:59.769Z,23.87
2019-04-30T11:46:28.574Z,26.93
2019-04-30T11:48:39.480Z,26.60
2019-04-30T11:50:50.420Z,24.57
2019-04-30T11:53:19.640Z,26.03
2019-04-30T11:55:14.270Z,26.37
2019-04-30T11:57:25.116Z,27.20
2019-04-30T11:59:36.103Z,23.80
2019-04-30T12:01:48.464Z,22.57
2019-04-30T12:03:59.880Z,19.87
2019-04-30T12:06:11.228Z,21.07
2019-04-30T12:08:27.050Z,18.77
2019-04-30T12:10:39.885Z,18.90
2019-04-30T12:12:50.747Z,19.03
2019-04-30T12:15:02.894Z,17.03
2019-04-30T12:17:13.968Z,19.43
2019-04-30T12:19:24.826Z,17.10
2019-04-30T12:21:35.785Z,12.40
2019-04-30T12:23:46.631Z,17.10
2019-04-30T12:26:01.010Z,15.93
2019-04-30T12:28:10.339Z,15.77
2019-04-30T12:30:21.610Z,15.80
2019-04-30T12:32:35.178Z,13.70
2019-04-30T12:34:45.222Z,18.70
2019-04-30T12:36:56.206Z,16.63
2019-04-30T12:39:07.249Z,17.33
2019-04-30T12:41:18.247Z,15.30
2019-04-30T12:43:29.660Z,14.53
2019-04-30T12:45:40.512Z,18.60
2019-04-30T12:47:59.453Z,12.17
2019-04-30T12:50:15.462Z,12.87
2019-04-30T12:52:29.615Z,14.23
2019-04-30T12:54:42.411Z,14.03
2019-04-30T12:57:01.230Z,17.23
2019-04-30T12:59:12.094Z,16.87
2019-04-30T13:01:23.079Z,13.23
2019-04-30T13:03:33.932Z,15.23
2019-04-30T13:05:45.190Z,12.83
2019-04-30T13:07:57.472Z,15.60
2019-04-30T13:10:10.143Z,13.73
2019-04-30T13:12:21.944Z,13.40
2019-04-30T13:14:36.855Z,14.07
2019-04-30T13:16:46.392Z,16.17
2019-04-30T13:18:59.287Z,15.73
2019-04-30T13:21:10.226Z,15.43
2019-04-30T13:23:21.106Z,19.57
2019-04-30T13:25:35.468Z,17.90
2019-04-30T13:27:46.664Z,15.33
2019-04-30T13:30:05.470Z,16.50
2019-04-30T13:32:29.565Z,14.30
2019-04-30T13:34:44.954Z,15.87
2019-04-30T13:36:55.810Z,14.73
2019-04-30T13:39:11.305Z,15.27
2019-04-30T13:41:44.531Z,12.37
2019-04-30T13:43:58.735Z,15.77
2019-04-30T13:46:09.722Z,13.57
2019-04-30T13:48:20.622Z,14.70
2019-04-30T13:50:31.530Z,14.43
2019-04-30T13:52:42.523Z,14.10
2019-04-30T13:54:55.249Z,15.90
2019-04-30T13:57:06.106Z,14.87
2019-04-30T13:59:17.005Z,12.77
2019-04-30T14:01:29.386Z,15.17
2019-04-30T14:03:51.566Z,13.97
2019-04-30T14:06:03.500Z,14.43
2019-04-30T14:08:20.015Z,11.63
2019-04-30T14:10:32.911Z,14.27
2019-04-30T14:12:45.770Z,11.33
2019-04-30T14:14:56.647Z,13.97
2019-04-30T14:17:09.200Z,12.73
2019-04-30T14:19:20.381Z,14.03
2019-04-30T14:21:35.271Z,13.63
2019-04-30T14:23:44.300Z,14.37
2019-04-30T14:25:56.548Z,11.00
2019-04-30T14:28:09.442Z,12.30
2019-04-30T14:30:20.916Z,12.40
2019-04-30T14:32:31.779Z,11.37
2019-04-30T14:34:42.739Z,12.13
2019-04-30T14:36:53.673Z,10.33
2019-04-30T14:39:14.419Z,11.47
2019-04-30T14:41:19.767Z,9.93
2019-04-30T14:43:45.360Z,12.20
2019-04-30T14:46:05.007Z,12.70
2019-04-30T14:48:20.845Z,11.97
2019-04-30T14:50:32.562Z,13.30
2019-04-30T14:52:48.321Z,12.50
2019-04-30T14:55:04.105Z,13.17
2019-04-30T14:57:33.425Z,15.30
2019-04-30T15:00:03.344Z,11.20
2019-04-30T15:02:29.619Z,12.70
2019-04-30T15:04:40.681Z,11.63
2019-04-30T15:06:51.539Z,11.63
2019-04-30T15:09:05.362Z,12.43
2019-04-30T15:11:16.337Z,12.33
2019-04-30T15:13:29.407Z,12.87
2019-04-30T15:15:40.153Z,13.43
2019-04-30T15:17:52.968Z,13.03
2019-04-30T15:20:04.811Z,10.90
2019-04-30T15:22:15.837Z,10.90
2019-04-30T15:24:29.358Z,11.13
2019-04-30T15:26:41.313Z,11.43
2019-04-30T15:28:52.241Z,10.10
2019-04-30T15:31:03.356Z,11.33
2019-04-30T15:33:19.096Z,10.27
2019-04-30T15:35:30.073Z,8.43
2019-04-30T15:37:42.970Z,9.80
2019-04-30T15:39:53.809Z,10.53
2019-04-30T15:42:04.898Z,7.97
2019-04-30T15:44:15.993Z,10.03
2019-04-30T15:46:27.059Z,14.30
2019-04-30T15:48:37.901Z,11.40
2019-04-30T15:50:49.341Z,10.07
2019-04-30T15:53:02.229Z,8.20
2019-04-30T15:55:13.216Z,9.83
2019-04-30T15:57:24.230Z,8.27
2019-04-30T15:59:39.771Z,10.67
2019-04-30T16:01:52.546Z,7.67
2019-04-30T16:04:03.819Z,8.77
2019-04-30T16:06:14.714Z,11.07
2019-04-30T16:08:29.086Z,11.13
2019-04-30T16:10:50.992Z,10.53
2019-04-30T16:13:19.531Z,10.87
2019-04-30T16:15:30.800Z,9.57
2019-04-30T16:17:43.592Z,11.43
2019-04-30T16:19:54.452Z,9.73
2019-04-30T16:22:05.562Z,12.33
2019-04-30T16:24:18.644Z,11.70
2019-04-30T16:26:29.392Z,10.43
2019-04-30T16:28:40.275Z,14.93
2019-04-30T16:30:51.318Z,10.80
2019-04-30T16:33:02.411Z,11.50
2019-04-30T16:35:13.339Z,10.73
2019-04-30T16:37:24.268Z,11.17
2019-04-30T16:39:35.185Z,10.37
2019-04-30T16:41:46.146Z,10.50
2019-04-30T16:43:57.021Z,9.90
2019-04-30T16:46:07.998Z,8.37
2019-04-30T16:48:19.437Z,9.60
2019-04-30T16:50:30.635Z,10.30
2019-04-30T16:52:41.497Z,11.77
2019-04-30T16:54:56.330Z,10.73
2019-04-30T16:57:07.298Z,8.50
2019-04-30T16:59:20.063Z,11.13
2019-04-30T17:01:32.348Z,8.67
2019-04-30T17:03:45.238Z,11.33
2019-04-30T17:05:59.639Z,9.83
2019-04-30T17:08:21.548Z,11.27
2019-04-30T17:10:50.931Z,9.63
2019-04-30T17:13:03.691Z,12.47
2019-04-30T17:15:22.430Z,9.23
2019-04-30T17:17:33.262Z,10.03
2019-04-30T17:19:44.299Z,9.87
2019-04-30T17:21:55.312Z,8.47
2019-04-30T17:24:06.293Z,11.83
2019-04-30T17:26:17.187Z,11.80
2019-04-30T17:28:28.569Z,10.83
2019-04-30T17:30:39.532Z,12.90
2019-04-30T17:32:50.478Z,12.20
2019-04-30T17:35:01.536Z,10.03
2019-04-30T17:37:12.494Z,8.70
2019-04-30T17:39:23.839Z,9.03
2019-04-30T17:41:34.823Z,11.20
2019-04-30T17:43:45.704Z,10.70
2019-04-30T17:45:56.701Z,10.83
2019-04-30T17:48:07.664Z,8.53
2019-04-30T17:50:18.882Z,13.57
2019-04-30T17:52:29.911Z,12.93
2019-04-30T17:54:41.112Z,10.17
2019-04-30T17:56:51.962Z,10.53
2019-04-30T17:59:03.014Z,9.17
2019-04-30T18:01:14.204Z,9.80
2019-04-30T18:03:25.417Z,11.13
2019-04-30T18:05:36.518Z,10.77
2019-04-30T18:07:49.629Z,11.13
2019-04-30T18:10:00.312Z,10.80
2019-04-30T18:12:11.205Z,17.13
2019-04-30T18:14:22.092Z,9.47
2019-04-30T18:16:35.062Z,16.17
2019-04-30T18:18:51.204Z,16.10
2019-04-30T18:21:16.174Z,14.87
2019-04-30T18:23:31.783Z,11.83
2019-04-30T18:25:44.631Z,9.93
2019-04-30T18:28:00.545Z,10.73
2019-04-30T18:30:13.492Z,9.77
2019-04-30T18:32:26.014Z,9.93
2019-04-30T18:34:38.714Z,10.70
2019-04-30T18:36:51.194Z,8.93
2019-04-30T18:39:05.090Z,10.43
2019-04-30T18:41:19.359Z,11.83
2019-04-30T18:43:30.330Z,9.23
2019-04-30T18:45:41.401Z,10.47
2019-04-30T18:47:52.473Z,10.77
2019-04-30T18:50:04.935Z,9.73
2019-04-30T18:52:15.755Z,25.57
2019-04-30T18:54:28.604Z,21.40
2019-04-30T18:56:39.433Z,12.60
2019-04-30T18:58:50.703Z,10.67
2019-04-30T19:01:01.756Z,10.40
2019-04-30T19:03:12.798Z,10.97
2019-04-30T19:05:25.928Z,10.40
2019-04-30T19:07:38.884Z,12.20
2019-04-30T19:09:54.629Z,11.50
2019-04-30T19:12:23.934Z,11.50
2019-04-30T19:14:45.645Z,10.60
2019-04-30T19:17:04.224Z,10.60
2019-04-30T19:19:17.029Z,11.93
2019-04-30T19:21:28.220Z,11.63
2019-04-30T19:23:39.207Z,12.70
2019-04-30T19:25:50.170Z,11.87
2019-04-30T19:28:11.321Z,11.03
2019-04-30T19:30:14.392Z,13.03
2019-04-30T19:32:25.255Z,9.73
2019-04-30T19:34:36.309Z,12.03
2019-04-30T19:36:49.131Z,12.47
2019-04-30T19:39:00.144Z,11.80
2019-04-30T19:41:11.212Z,10.93
2019-04-30T19:43:22.487Z,13.30
2019-04-30T19:45:34.794Z,13.03
2019-04-30T19:47:45.951Z,11.07
2019-04-30T19:49:57.214Z,12.70
2019-04-30T19:52:11.829Z,13.10
2019-04-30T19:54:23.300Z,12.03
2019-04-30T19:56:34.455Z,12.67
2019-04-30T19:58:57.205Z,10.70
2019-04-30T20:00:59.518Z,14.43
2019-04-30T20:03:11.807Z,12.13
2019-04-30T20:05:22.793Z,13.63
2019-04-30T20:07:33.735Z,12.00
2019-04-30T20:09:57.264Z,11.40
2019-04-30T20:11:59.609Z,13.13
2019-04-30T20:14:10.467Z,15.57
2019-04-30T20:16:21.753Z,12.10
2019-04-30T20:18:32.686Z,14.20
2019-04-30T20:20:45.577Z,13.20
2019-04-30T20:22:56.480Z,14.30
2019-04-30T20:25:09.153Z,11.77
2019-04-30T20:27:20.261Z,13.13
2019-04-30T20:29:31.129Z,13.37
2019-04-30T20:31:42.015Z,13.43
2019-04-30T20:33:53.770Z,16.07
2019-04-30T20:36:04.948Z,13.73
2019-04-30T20:38:19.449Z,13.77
2019-04-30T20:40:43.055Z,14.80
2019-04-30T20:42:45.106Z,14.47
2019-04-30T20:44:56.103Z,14.83
2019-04-30T20:47:08.838Z,15.93
2019-04-30T20:49:20.053Z,12.57
2019-04-30T20:51:31.044Z,14.50
2019-04-30T20:53:41.925Z,14.67
2019-04-30T20:55:52.795Z,14.70
2019-04-30T20:58:03.876Z,13.77
2019-04-30T21:00:14.853Z,17.30
2019-04-30T21:02:25.741Z,13.70
2019-04-30T21:04:36.585Z,14.10
2019-04-30T21:06:49.516Z,16.27
2019-04-30T21:09:00.468Z,13.73
2019-04-30T21:11:11.426Z,15.70
2019-04-30T21:13:22.406Z,16.20
2019-04-30T21:15:33.381Z,16.30
2019-04-30T21:17:44.359Z,17.47
2019-04-30T21:20:01.048Z,14.80
2019-04-30T21:22:12.079Z,16.80
2019-04-30T21:24:22.954Z,21.90
2019-04-30T21:26:33.934Z,20.00
2019-04-30T21:28:44.939Z,16.63
2019-04-30T21:30:55.791Z,15.87
2019-04-30T21:33:14.808Z,16.77
2019-04-30T21:35:27.786Z,17.93
2019-04-30T21:37:38.668Z,16.07
2019-04-30T21:39:50.155Z,14.70
2019-04-30T21:42:01.311Z,17.83
2019-04-30T21:44:12.682Z,16.03
2019-04-30T21:46:23.541Z,15.20
2019-04-30T21:48:35.351Z,17.37
2019-04-30T21:50:46.214Z,14.30
2019-04-30T21:52:57.064Z,17.53
2019-04-30T21:55:09.701Z,15.37
2019-04-30T21:57:20.824Z,14.00
2019-04-30T21:59:31.893Z,16.80
2019-04-30T22:01:44.966Z,16.20
2019-04-30T22:03:55.841Z,14.33
2019-04-30T22:06:08.495Z,17.63
2019-04-30T22:08:19.776Z,16.10
2019-04-30T22:10:30.737Z,16.13
2019-04-30T22:12:41.594Z,20.17
2019-04-30T22:14:54.492Z,18.87
2019-04-30T22:17:05.557Z,17.63
2019-04-30T22:19:16.538Z,22.23
2019-04-30T22:21:28.336Z,20.17
2019-04-30T22:23:40.332Z,16.23
2019-04-30T22:25:53.222Z,18.50
2019-04-30T22:28:04.258Z,17.93
2019-04-30T22:30:15.669Z,18.13
2019-04-30T22:32:26.563Z,18.37
2019-04-30T22:34:37.545Z,21.13
2019-04-30T22:36:48.995Z,18.60
2019-04-30T22:39:19.934Z,18.80
2019-04-30T22:41:32.951Z,18.00
2019-04-30T22:43:43.812Z,17.17
2019-04-30T22:45:59.656Z,18.23
2019-04-30T22:48:10.638Z,19.13
2019-04-30T22:50:22.735Z,17.77
2019-04-30T22:52:33.595Z,19.37
2019-04-30T22:54:44.522Z,18.30
2019-04-30T22:56:55.348Z,19.43
2019-04-30T22:59:06.401Z,21.47
2019-04-30T23:01:35.798Z,20.87
2019-04-30T23:03:47.081Z,24.17
2019-04-30T23:05:58.056Z,19.10
2019-04-30T23:08:09.021Z,22.67
2019-04-30T23:10:20.023Z,19.63
2019-04-30T23:12:31.189Z,21.67
2019-04-30T23:14:42.125Z,21.57
2019-04-30T23:16:55.814Z,23.13
2019-04-30T23:19:06.674Z,21.63
2019-04-30T23:21:17.707Z,22.27
2019-04-30T23:23:28.638Z,23.70
2019-04-30T23:25:39.539Z,23.57
2019-04-30T23:27:50.409Z,20.20
2019-04-30T23:30:03.614Z,23.33
2019-04-30T23:32:14.115Z,20.40
2019-04-30T23:34:25.057Z,22.80
2019-04-30T23:36:35.919Z,17.47
2019-04-30T23:38:46.844Z,20.30
2019-04-30T23:40:57.678Z,19.40
2019-04-30T23:43:08.546Z,19.40
2019-04-30T23:45:19.621Z,21.23
2019-04-30T23:47:30.468Z,18.47
2019-04-30T23:49:41.298Z,21.70
2019-04-30T23:51:52.221Z,22.37
2019-04-30T23:54:03.343Z,20.23
2019-04-30T23:56:14.201Z,20.67
2019-04-30T23:58:25.047Z,21.03
